createdAt,value
2023-04-03T00:00:39.834Z,4.20
2023-04-03T00:01:42.192Z,0.27
2023-04-03T00:02:44.599Z,3.80
2023-04-03T00:03:46.997Z,3.70
2023-04-03T00:04:48.995Z,3.80
2023-04-03T00:05:51.216Z,4.22
2023-04-03T00:06:53.324Z,3.70
2023-04-03T00:07:55.850Z,3.90
2023-04-03T00:08:58.423Z,4.30
2023-04-03T00:10:00.570Z,4.60
2023-04-03T00:11:03.998Z,4.90
2023-04-03T00:12:06.201Z,5.00
2023-04-03T00:13:09.912Z,4.60
2023-04-03T00:14:12.120Z,4.00
2023-04-03T00:15:14.282Z,3.40
2023-04-03T00:16:16.776Z,3.80
2023-04-03T00:17:19.562Z,3.90
2023-04-03T00:18:22.133Z,5.00
2023-04-03T00:19:24.290Z,4.60
2023-04-03T00:20:26.655Z,3.80
2023-04-03T00:21:29.419Z,4.20
2023-04-03T00:22:31.458Z,4.00
2023-04-03T00:23:34.454Z,4.20
2023-04-03T00:24:37.743Z,3.82
2023-04-03T00:25:40.300Z,4.70
2023-04-03T00:26:43.722Z,0.20
2023-04-03T00:27:45.929Z,4.20
2023-04-03T00:28:48.520Z,4.50
2023-04-03T00:29:50.651Z,3.80
2023-04-03T00:30:52.867Z,4.30
2023-04-03T00:31:55.200Z,3.80
2023-04-03T00:32:57.832Z,4.30
2023-04-03T00:34:00.420Z,4.50
2023-04-03T00:35:03.307Z,3.20
2023-04-03T00:36:08.792Z,4.10
2023-04-03T00:37:12.875Z,5.40
2023-04-03T00:38:15.345Z,5.40
2023-04-03T00:39:17.596Z,5.00
2023-04-03T00:40:22.174Z,5.20
2023-04-03T00:41:24.373Z,4.70
2023-04-03T00:42:26.737Z,4.50
2023-04-03T00:43:30.262Z,4.40
2023-04-03T00:44:39.197Z,5.50
2023-04-03T00:45:44.563Z,4.80
2023-04-03T00:46:47.429Z,4.60
2023-04-03T00:47:50.064Z,5.00
2023-04-03T00:48:52.725Z,5.40
2023-04-03T00:49:54.882Z,5.00
2023-04-03T00:50:58.637Z,4.10
2023-04-03T00:52:01.714Z,4.20
2023-04-03T00:53:07.595Z,4.60
2023-04-03T00:54:10.377Z,5.00
2023-04-03T00:55:13.649Z,4.20
2023-04-03T00:56:19.902Z,4.60
2023-04-03T00:57:23.229Z,4.10
2023-04-03T01:00:59.191Z,5.40
2023-04-03T01:02:02.175Z,5.40
2023-04-03T01:03:05.566Z,4.80
2023-04-03T01:05:40.498Z,5.20
2023-04-03T01:06:43.230Z,5.00
2023-04-03T01:07:47.111Z,4.70
2023-04-03T01:08:51.326Z,4.20
2023-04-03T01:10:00.184Z,4.10
2023-04-03T01:11:03.045Z,4.80
2023-04-03T01:12:20.646Z,3.55
2023-04-03T01:13:26.914Z,4.40
2023-04-03T01:14:29.008Z,4.90
2023-04-03T01:15:31.153Z,4.56
2023-04-03T01:16:33.940Z,5.40
2023-04-03T01:17:42.598Z,4.10
2023-04-03T01:18:46.012Z,3.30
2023-04-03T01:19:51.883Z,4.50
2023-04-03T01:21:17.663Z,4.60
2023-04-03T01:22:23.728Z,4.90
2023-04-03T01:24:56.270Z,5.70
2023-04-03T01:25:58.741Z,5.70
2023-04-03T01:27:04.642Z,4.60
2023-04-03T01:28:10.189Z,5.20
2023-04-03T01:29:12.506Z,3.30
2023-04-03T01:30:17.963Z,5.70
2023-04-03T01:32:58.101Z,5.80
2023-04-03T01:34:01.105Z,4.60
2023-04-03T01:35:04.462Z,4.90
2023-04-03T01:36:08.313Z,4.60
2023-04-03T01:37:10.860Z,5.20
2023-04-03T01:38:13.162Z,4.70
2023-04-03T01:39:17.211Z,5.50
2023-04-03T01:40:19.673Z,4.30
2023-04-03T01:41:23.411Z,5.73
2023-04-03T01:42:26.455Z,5.00
2023-04-03T01:43:28.624Z,6.60
2023-04-03T01:44:30.908Z,3.60
2023-04-03T01:45:33.244Z,4.90
2023-04-03T01:46:36.059Z,4.60
2023-04-03T01:47:38.266Z,4.20
2023-04-03T01:48:40.828Z,3.90
2023-04-03T01:49:43.087Z,4.60
2023-04-03T01:50:46.265Z,5.70
2023-04-03T01:51:49.055Z,3.82
2023-04-03T01:52:51.310Z,4.10
2023-04-03T01:53:53.588Z,4.80
2023-04-03T01:54:55.838Z,4.80
2023-04-03T01:55:58.094Z,4.70
2023-04-03T01:57:00.423Z,4.80
2023-04-03T01:58:03.001Z,4.20
2023-04-03T01:59:05.827Z,4.10
2023-04-03T02:00:10.588Z,4.30
2023-04-03T02:01:15.295Z,4.50
2023-04-03T02:02:17.875Z,2.30
2023-04-03T02:03:20.025Z,4.30
2023-04-03T02:04:23.453Z,5.10
2023-04-03T02:05:25.858Z,4.50
2023-04-03T02:06:28.018Z,4.50
2023-04-03T02:07:30.291Z,3.90
2023-04-03T02:08:32.541Z,4.60
2023-04-03T02:09:35.735Z,5.30
2023-04-03T02:10:38.459Z,5.64
2023-04-03T02:11:41.673Z,5.80
2023-04-03T02:12:44.504Z,4.00
2023-04-03T02:13:46.767Z,4.70
2023-04-03T02:14:49.097Z,4.20
2023-04-03T02:15:51.353Z,5.00
2023-04-03T02:16:54.699Z,4.60
2023-04-03T02:17:58.661Z,4.70
2023-04-03T02:19:02.321Z,5.30
2023-04-03T02:20:07.737Z,5.30
2023-04-03T02:21:10.072Z,4.00
2023-04-03T02:22:12.132Z,4.80
2023-04-03T02:23:14.618Z,5.55
2023-04-03T02:24:16.900Z,4.20
2023-04-03T02:25:19.381Z,5.30
2023-04-03T02:26:22.938Z,4.91
2023-04-03T02:27:25.210Z,5.00
2023-04-03T02:28:27.285Z,4.50
2023-04-03T02:29:29.497Z,5.11
2023-04-03T02:30:32.008Z,5.60
2023-04-03T02:31:34.285Z,4.40
2023-04-03T02:32:37.232Z,5.36
2023-04-03T02:33:39.525Z,5.40
2023-04-03T02:34:43.378Z,4.80
2023-04-03T02:35:47.885Z,4.90
2023-04-03T02:36:50.743Z,5.45
2023-04-03T02:37:54.775Z,4.60
2023-04-03T02:38:57.950Z,5.00
2023-04-03T02:40:00.210Z,4.80
2023-04-03T02:41:09.357Z,5.90
2023-04-03T02:42:11.466Z,3.80
2023-04-03T02:43:13.911Z,4.70
2023-04-03T02:44:17.193Z,4.30
2023-04-03T02:45:19.382Z,4.50
2023-04-03T02:46:22.045Z,3.50
2023-04-03T02:47:24.758Z,4.50
2023-04-03T02:48:27.214Z,5.00
2023-04-03T02:49:29.798Z,5.27
2023-04-03T02:50:32.255Z,4.80
2023-04-03T02:51:34.418Z,4.50
2023-04-03T02:52:36.791Z,4.20
2023-04-03T02:53:39.257Z,3.60
2023-04-03T02:54:43.345Z,4.70
2023-04-03T02:55:46.305Z,4.70
2023-04-03T02:56:48.616Z,4.80
2023-04-03T02:57:50.811Z,4.50
2023-04-03T02:58:53.093Z,4.50
2023-04-03T02:59:55.342Z,5.00
2023-04-03T03:00:57.614Z,4.30
2023-04-03T03:02:00.007Z,4.90
2023-04-03T03:03:02.392Z,5.50
2023-04-03T03:04:04.808Z,5.20
2023-04-03T03:05:07.541Z,4.30
2023-04-03T03:06:13.688Z,4.70
2023-04-03T03:07:15.827Z,5.30
2023-04-03T03:08:19.046Z,5.30
2023-04-03T03:09:21.702Z,5.10
2023-04-03T03:10:24.858Z,4.50
2023-04-03T03:11:27.166Z,5.00
2023-04-03T03:12:29.856Z,4.70
2023-04-03T03:13:33.934Z,5.50
2023-04-03T03:14:36.262Z,4.36
2023-04-03T03:15:38.266Z,5.40
2023-04-03T03:16:40.524Z,5.20
2023-04-03T03:17:42.999Z,4.00
2023-04-03T03:18:45.178Z,5.20
2023-04-03T03:19:47.268Z,5.22
2023-04-03T03:22:03.319Z,5.60
2023-04-03T03:23:05.624Z,5.00
2023-04-03T03:24:08.128Z,5.00
2023-04-03T03:25:10.298Z,5.00
2023-04-03T03:26:13.378Z,6.40
2023-04-03T03:27:16.070Z,5.18
2023-04-03T03:29:26.982Z,5.20
2023-04-03T03:30:29.383Z,5.64
2023-04-03T03:31:32.096Z,5.10
2023-04-03T03:32:34.417Z,5.50
2023-04-03T03:33:37.804Z,4.50
2023-04-03T03:34:40.457Z,5.10
2023-04-03T03:35:42.552Z,5.20
2023-04-03T03:36:45.309Z,5.40
2023-04-03T03:37:47.572Z,5.20
2023-04-03T03:38:49.765Z,5.40
2023-04-03T03:39:51.728Z,5.20
2023-04-03T03:40:54.604Z,5.00
2023-04-03T03:41:57.178Z,4.50
2023-04-03T03:42:59.447Z,5.30
2023-04-03T03:44:01.865Z,5.30
2023-04-03T03:45:06.512Z,5.80
2023-04-03T03:46:09.200Z,5.50
2023-04-03T03:47:11.394Z,5.00
2023-04-03T03:48:13.854Z,5.30
2023-04-03T03:49:16.087Z,5.70
2023-04-03T03:50:18.559Z,4.90
2023-04-03T03:51:20.820Z,5.00
2023-04-03T03:52:23.190Z,4.50
2023-04-03T03:53:25.996Z,4.80
2023-04-03T03:54:30.077Z,6.10
2023-04-03T03:55:33.205Z,5.10
2023-04-03T03:56:35.340Z,4.90
2023-04-03T03:57:37.763Z,5.80
2023-04-03T03:58:40.572Z,5.00
2023-04-03T03:59:43.153Z,4.70
2023-04-03T04:00:45.513Z,5.20
2023-04-03T04:01:48.825Z,5.70
2023-04-03T04:02:51.199Z,5.50
2023-04-03T04:03:55.287Z,5.10
2023-04-03T04:04:59.239Z,5.90
2023-04-03T04:06:01.491Z,5.90
2023-04-03T04:07:04.537Z,4.90
2023-04-03T04:08:07.515Z,5.60
2023-04-03T04:09:10.392Z,5.20
2023-04-03T04:10:13.204Z,5.60
2023-04-03T04:11:16.485Z,5.70
2023-04-03T04:12:19.352Z,4.70
2023-04-03T04:13:22.132Z,5.00
2023-04-03T04:14:25.024Z,2.90
2023-04-03T04:15:27.646Z,4.60
2023-04-03T04:16:30.219Z,5.60
2023-04-03T04:17:34.630Z,5.60
2023-04-03T04:18:37.131Z,4.18
2023-04-03T04:19:39.366Z,5.60
2023-04-03T04:20:41.842Z,5.30
2023-04-03T04:21:44.915Z,5.30
2023-04-03T04:22:47.172Z,4.90
2023-04-03T04:23:49.424Z,4.40
2023-04-03T04:24:51.668Z,5.50
2023-04-03T04:25:53.968Z,5.50
2023-04-03T04:26:56.852Z,4.60
2023-04-03T04:27:59.316Z,5.80
2023-04-03T04:29:02.088Z,5.00
2023-04-03T04:30:07.876Z,5.70
2023-04-03T04:31:11.432Z,5.50
2023-04-03T04:32:13.739Z,6.09
2023-04-03T04:33:16.372Z,5.90
2023-04-03T04:34:19.382Z,6.90
2023-04-03T04:35:21.687Z,6.30
2023-04-03T04:36:24.903Z,5.20
2023-04-03T04:37:28.213Z,5.60
2023-04-03T04:38:30.552Z,6.40
2023-04-03T04:39:32.880Z,4.80
2023-04-03T04:40:35.150Z,5.70
2023-04-03T04:41:37.621Z,4.90
2023-04-03T04:42:39.984Z,5.70
2023-04-03T04:43:42.446Z,5.70
2023-04-03T04:44:45.488Z,5.18
2023-04-03T04:45:48.931Z,5.90
2023-04-03T04:46:55.173Z,5.20
2023-04-03T04:47:57.260Z,5.80
2023-04-03T04:49:00.246Z,6.30
2023-04-03T04:50:04.554Z,6.40
2023-04-03T04:51:07.626Z,5.40
2023-04-03T04:52:11.416Z,4.90
2023-04-03T04:53:15.797Z,5.70
2023-04-03T04:54:18.572Z,7.40
2023-04-03T04:55:21.693Z,5.20
2023-04-03T04:56:25.792Z,6.00
2023-04-03T04:57:29.551Z,2.50
2023-04-03T04:58:33.323Z,5.50
2023-04-03T04:59:36.922Z,5.90
2023-04-03T05:00:39.902Z,6.00
2023-04-03T05:01:42.779Z,6.10
2023-04-03T05:02:46.919Z,6.10
2023-04-03T05:03:50.036Z,5.70
2023-04-03T05:04:52.983Z,6.10
2023-04-03T05:05:57.242Z,5.60
2023-04-03T05:06:59.703Z,6.00
2023-04-03T05:08:04.452Z,6.00
2023-04-03T05:09:06.740Z,5.20
2023-04-03T05:10:10.492Z,5.80
2023-04-03T05:11:13.550Z,5.40
2023-04-03T05:12:17.215Z,6.40
2023-04-03T05:13:21.563Z,5.80
2023-04-03T05:14:23.832Z,7.20
2023-04-03T05:15:25.976Z,6.10
2023-04-03T05:16:28.396Z,5.70
2023-04-03T05:17:32.165Z,5.73
2023-04-03T05:18:35.848Z,5.40
2023-04-03T05:19:40.477Z,4.40
2023-04-03T05:20:43.518Z,4.80
2023-04-03T05:21:47.657Z,5.90
2023-04-03T05:22:50.896Z,5.50
2023-04-03T05:23:53.863Z,5.36
2023-04-03T05:24:57.517Z,5.40
2023-04-03T05:26:00.016Z,5.00
2023-04-03T05:27:03.094Z,4.90
2023-04-03T05:28:05.742Z,5.80
2023-04-03T05:29:08.031Z,5.00
2023-04-03T05:30:11.483Z,6.10
2023-04-03T05:31:14.641Z,5.40
2023-04-03T05:32:17.727Z,5.70
2023-04-03T05:33:20.393Z,4.40
2023-04-03T05:34:24.845Z,5.10
2023-04-03T05:35:28.462Z,5.50
2023-04-03T05:36:32.864Z,5.70
2023-04-03T05:37:37.480Z,5.20
2023-04-03T05:39:49.304Z,6.00
2023-04-03T05:40:51.573Z,6.10
2023-04-03T05:41:54.285Z,6.60
2023-04-03T05:42:56.572Z,5.30
2023-04-03T05:43:59.134Z,5.80
2023-04-03T05:45:01.768Z,5.70
2023-04-03T05:46:04.243Z,4.90
2023-04-03T05:47:07.033Z,6.50
2023-04-03T05:48:09.334Z,4.50
2023-04-03T05:49:11.866Z,7.20
2023-04-03T05:50:14.426Z,6.20
2023-04-03T05:51:19.893Z,5.70
2023-04-03T05:52:28.658Z,5.50
2023-04-03T05:53:35.425Z,5.30
2023-04-03T05:54:38.933Z,5.20
2023-04-03T05:55:45.949Z,5.60
2023-04-03T05:56:49.264Z,5.30
2023-04-03T05:57:51.605Z,5.20
2023-04-03T05:58:53.769Z,5.20
2023-04-03T05:59:55.931Z,4.60
2023-04-03T06:00:58.352Z,5.10
2023-04-03T06:02:01.596Z,5.30
2023-04-03T06:03:03.910Z,7.27
2023-04-03T06:04:06.586Z,5.30
2023-04-03T06:05:09.799Z,5.30
2023-04-03T06:06:14.598Z,5.10
2023-04-03T06:07:19.850Z,6.00
2023-04-03T06:08:22.321Z,6.80
2023-04-03T06:09:26.856Z,5.30
2023-04-03T06:10:29.751Z,5.70
2023-04-03T06:11:32.512Z,5.09
2023-04-03T06:12:35.387Z,5.09
2023-04-03T06:13:38.118Z,5.36
2023-04-03T06:14:40.383Z,4.30
2023-04-03T06:15:43.851Z,5.30
2023-04-03T06:16:46.641Z,5.60
2023-04-03T06:17:49.950Z,5.70
2023-04-03T06:18:52.166Z,5.70
2023-04-03T06:19:54.868Z,5.80
2023-04-03T06:20:57.622Z,5.80
2023-04-03T06:21:59.885Z,5.50
2023-04-03T06:23:02.161Z,6.50
2023-04-03T06:24:05.557Z,6.30
2023-04-03T06:25:09.460Z,3.30
2023-04-03T06:26:11.762Z,5.50
2023-04-03T06:27:14.592Z,5.60
2023-04-03T06:28:16.686Z,5.82
2023-04-03T06:29:20.820Z,4.70
2023-04-03T06:30:23.119Z,5.50
2023-04-03T06:31:26.008Z,6.30
2023-04-03T06:32:28.528Z,6.20
2023-04-03T06:33:30.598Z,4.70
2023-04-03T06:34:32.877Z,6.70
2023-04-03T06:35:34.825Z,5.80
2023-04-03T06:36:37.089Z,5.80
2023-04-03T06:37:39.380Z,6.70
2023-04-03T06:38:42.108Z,6.10
2023-04-03T06:39:44.601Z,6.10
2023-04-03T06:40:46.837Z,5.80
2023-04-03T06:41:50.603Z,5.60
2023-04-03T06:42:53.591Z,4.90
2023-04-03T06:43:56.831Z,6.30
2023-04-03T06:44:59.015Z,6.00
2023-04-03T06:46:01.680Z,4.60
2023-04-03T06:47:04.673Z,5.80
2023-04-03T06:48:07.051Z,5.55
2023-04-03T06:49:09.792Z,5.60
2023-04-03T06:50:13.837Z,6.20
2023-04-03T06:51:20.022Z,5.30
2023-04-03T06:52:22.691Z,2.30
2023-04-03T06:53:25.400Z,6.10
2023-04-03T06:54:28.059Z,6.10
2023-04-03T06:55:30.135Z,6.10
2023-04-03T06:56:32.584Z,5.60
2023-04-03T06:57:34.908Z,7.10
2023-04-03T06:58:37.470Z,5.80
2023-04-03T06:59:40.070Z,6.00
2023-04-03T07:00:43.269Z,5.27
2023-04-03T07:01:45.927Z,6.64
2023-04-03T07:02:48.601Z,6.00
2023-04-03T07:03:51.376Z,6.30
2023-04-03T07:04:53.877Z,6.70
2023-04-03T07:05:56.161Z,5.20
2023-04-03T07:06:58.856Z,6.90
2023-04-03T07:08:01.726Z,6.60
2023-04-03T07:09:04.090Z,5.09
2023-04-03T07:10:08.012Z,5.82
2023-04-03T07:12:19.737Z,6.90
2023-04-03T07:13:22.456Z,6.80
2023-04-03T07:14:25.112Z,6.70
2023-04-03T07:15:27.282Z,6.70
2023-04-03T07:16:29.576Z,6.40
2023-04-03T07:17:32.114Z,5.50
2023-04-03T07:18:35.020Z,5.90
2023-04-03T07:19:37.118Z,5.80
2023-04-03T07:20:39.683Z,6.70
2023-04-03T07:21:41.837Z,5.30
2023-04-03T07:22:43.841Z,6.89
2023-04-03T07:24:50.066Z,6.30
2023-04-03T07:25:52.944Z,6.80
2023-04-03T07:26:55.829Z,6.09
2023-04-03T07:27:58.204Z,6.50
2023-04-03T07:29:00.349Z,7.00
2023-04-03T07:30:03.228Z,7.80
2023-04-03T07:31:08.530Z,6.45
2023-04-03T07:32:10.938Z,6.00
2023-04-03T07:33:14.855Z,6.20
2023-04-03T07:34:17.092Z,6.50
2023-04-03T07:35:19.832Z,7.00
2023-04-03T07:36:23.149Z,7.70
2023-04-03T07:37:25.366Z,5.80
2023-04-03T07:38:27.629Z,6.30
2023-04-03T07:39:30.205Z,5.30
2023-04-03T07:40:34.102Z,6.10
2023-04-03T07:41:36.771Z,6.50
2023-04-03T07:42:38.645Z,8.50
2023-04-03T07:43:41.289Z,5.89
2023-04-03T07:44:43.568Z,7.20
2023-04-03T07:45:46.250Z,6.00
2023-04-03T07:46:48.562Z,5.80
2023-04-03T07:47:51.966Z,6.20
2023-04-03T07:48:55.249Z,7.40
2023-04-03T07:51:07.297Z,7.50
2023-04-03T07:52:09.992Z,6.20
2023-04-03T07:53:12.798Z,5.10
2023-04-03T07:54:15.314Z,5.60
2023-04-03T07:55:18.019Z,6.50
2023-04-03T07:56:20.264Z,5.50
2023-04-03T07:57:22.625Z,6.00
2023-04-03T07:58:25.362Z,5.80
2023-04-03T07:59:27.518Z,5.00
2023-04-03T08:00:29.783Z,6.70
2023-04-03T08:01:32.834Z,5.30
2023-04-03T08:02:35.135Z,5.60
2023-04-03T08:03:38.379Z,6.70
2023-04-03T08:04:41.030Z,6.00
2023-04-03T08:05:44.889Z,5.60
2023-04-03T08:06:47.383Z,5.30
2023-04-03T08:07:49.462Z,6.30
2023-04-03T08:08:51.612Z,4.50
2023-04-03T08:09:53.694Z,5.60
2023-04-03T08:10:57.845Z,5.70
2023-04-03T08:11:59.975Z,6.30
2023-04-03T08:13:02.634Z,5.00
2023-04-03T08:14:04.770Z,4.90
2023-04-03T08:15:08.934Z,6.00
2023-04-03T08:16:13.681Z,5.00
2023-04-03T08:17:15.993Z,5.50
2023-04-03T08:18:19.386Z,5.70
2023-04-03T08:19:26.533Z,6.10
2023-04-03T08:20:27.499Z,5.10
2023-04-03T08:21:29.636Z,5.45
2023-04-03T08:22:32.221Z,6.40
2023-04-03T08:23:34.389Z,5.00
2023-04-03T08:24:39.109Z,6.60
2023-04-03T08:25:41.747Z,6.00
2023-04-03T08:26:43.929Z,6.80
2023-04-03T08:27:46.136Z,6.30
2023-04-03T08:28:49.313Z,6.20
2023-04-03T08:29:52.027Z,6.40
2023-04-03T08:30:54.703Z,6.00
2023-04-03T08:31:56.842Z,6.90
2023-04-03T08:33:01.541Z,5.80
2023-04-03T08:34:03.882Z,6.40
2023-04-03T08:35:06.263Z,6.00
2023-04-03T08:36:19.211Z,6.40
2023-04-03T08:37:21.973Z,5.30
2023-04-03T08:38:24.200Z,7.10
2023-04-03T08:39:26.411Z,5.10
2023-04-03T08:40:28.677Z,6.00
2023-04-03T08:41:36.827Z,5.70
2023-04-03T08:42:54.961Z,5.00
2023-04-03T08:44:10.449Z,2.90
2023-04-03T08:45:16.288Z,4.90
2023-04-03T08:46:22.286Z,6.00
2023-04-03T08:48:54.091Z,7.40
2023-04-03T08:50:02.336Z,6.60
2023-04-03T08:51:12.508Z,5.80
2023-04-03T08:52:15.892Z,6.80
2023-04-03T08:53:27.698Z,5.70
2023-04-03T08:54:39.818Z,6.10
2023-04-03T08:56:55.566Z,6.20
2023-04-03T08:58:06.301Z,5.70
2023-04-03T08:59:12.591Z,5.80
2023-04-03T09:00:21.887Z,4.80
2023-04-03T09:01:37.262Z,5.80
2023-04-03T09:02:48.167Z,5.20
2023-04-03T09:03:51.174Z,6.10
2023-04-03T09:04:53.909Z,5.20
2023-04-03T09:06:02.559Z,5.10
2023-04-03T09:07:11.328Z,6.00
2023-04-03T09:08:31.840Z,5.60
2023-04-03T09:09:36.906Z,5.00
2023-04-03T09:10:41.986Z,4.90
2023-04-03T09:11:48.884Z,5.50
2023-04-03T09:13:06.660Z,6.40
2023-04-03T09:14:30.620Z,4.70
2023-04-03T09:15:39.076Z,4.30
2023-04-03T09:16:46.012Z,5.70
2023-04-03T09:18:15.274Z,5.00
2023-04-03T09:19:33.851Z,6.30
2023-04-03T09:20:51.324Z,5.30
2023-04-03T09:21:53.744Z,5.30
2023-04-03T09:22:55.885Z,4.80
2023-04-03T09:24:01.095Z,5.50
2023-04-03T09:25:09.868Z,5.90
2023-04-03T09:26:31.579Z,4.40
2023-04-03T09:27:33.787Z,4.80
2023-04-03T09:28:49.249Z,5.70
2023-04-03T09:29:45.610Z,5.30
2023-04-03T09:30:47.812Z,5.60
2023-04-03T09:32:02.601Z,7.10
2023-04-03T09:33:06.115Z,5.00
2023-04-03T09:35:40.625Z,7.00
2023-04-03T09:38:12.489Z,5.50
2023-04-03T09:39:18.597Z,5.10
2023-04-03T09:40:30.637Z,4.60
2023-04-03T09:41:33.971Z,3.80
2023-04-03T09:42:42.287Z,4.60
2023-04-03T09:45:00.110Z,5.30
2023-04-03T09:46:26.068Z,5.60
2023-04-03T09:47:36.397Z,5.00
2023-04-03T09:48:38.661Z,4.70
2023-04-03T09:49:41.246Z,5.40
2023-04-03T09:50:52.890Z,5.30
2023-04-03T09:51:55.106Z,5.00
2023-04-03T09:52:57.266Z,4.70
2023-04-03T09:54:01.340Z,5.82
2023-04-03T09:55:08.848Z,5.60
2023-04-03T09:56:21.254Z,5.40
2023-04-03T09:57:27.133Z,4.50
2023-04-03T09:58:42.782Z,5.10
2023-04-03T09:59:48.320Z,5.30
2023-04-03T10:00:59.088Z,5.20
2023-04-03T10:02:14.868Z,4.60
2023-04-03T10:03:26.735Z,4.70
2023-04-03T10:04:32.601Z,5.20
2023-04-03T10:05:38.080Z,4.90
2023-04-03T10:06:48.998Z,4.70
2023-04-03T10:08:01.793Z,4.60
2023-04-03T10:09:08.190Z,5.30
2023-04-03T10:10:20.175Z,4.60
2023-04-03T10:11:22.383Z,5.40
2023-04-03T10:12:24.930Z,4.20
2023-04-03T10:13:27.557Z,4.20
2023-04-03T10:14:30.867Z,5.70
2023-04-03T10:15:36.629Z,5.00
2023-04-03T10:16:45.848Z,5.30
2023-04-03T10:18:04.502Z,5.30
2023-04-03T10:19:20.852Z,4.80
2023-04-03T10:23:21.613Z,6.00
2023-04-03T10:24:27.575Z,5.50
2023-04-03T10:26:06.800Z,6.50
2023-04-03T10:28:42.263Z,6.80
2023-04-03T10:30:23.338Z,5.30
2023-04-03T10:33:20.417Z,6.40
2023-04-03T10:34:32.135Z,3.20
2023-04-03T10:35:54.589Z,4.80
2023-04-03T10:37:00.430Z,3.50
2023-04-03T10:40:00.636Z,5.90
2023-04-03T10:42:21.639Z,6.20
2023-04-03T10:43:56.707Z,6.10
2023-04-03T10:45:17.529Z,5.10
2023-04-03T10:46:29.308Z,5.80
2023-04-03T10:47:36.102Z,5.50
2023-04-03T10:48:49.160Z,4.70
2023-04-03T10:50:06.950Z,5.00
2023-04-03T10:51:45.070Z,4.40
2023-04-03T10:52:53.840Z,4.20
2023-04-03T10:55:20.884Z,6.40
2023-04-03T10:56:42.488Z,5.30
2023-04-03T10:57:48.376Z,4.90
2023-04-03T10:59:11.116Z,5.80
2023-04-03T11:00:20.130Z,4.40
2023-04-03T11:02:57.002Z,6.50
2023-04-03T11:04:01.146Z,5.30
2023-04-03T11:06:19.225Z,5.60
2023-04-03T11:08:55.299Z,6.10
2023-04-03T11:11:22.351Z,6.40
2023-04-03T11:14:07.909Z,7.00
2023-04-03T11:15:20.149Z,7.10
2023-04-03T11:16:25.638Z,5.30
2023-04-03T11:17:34.255Z,6.30
2023-04-03T11:20:05.455Z,7.30
2023-04-03T11:22:35.308Z,8.00
2023-04-03T11:23:48.811Z,6.90
2023-04-03T11:24:48.390Z,4.90
2023-04-03T11:25:54.080Z,5.40
2023-04-03T11:26:59.072Z,4.90
2023-04-03T11:28:07.312Z,4.50
2023-04-03T11:29:28.125Z,4.80
2023-04-03T11:30:47.454Z,1.10
2023-04-03T11:32:10.215Z,5.64
2023-04-03T11:33:28.515Z,5.00
2023-04-03T11:34:38.450Z,6.40
2023-04-03T11:35:50.575Z,6.10
2023-04-03T11:36:59.754Z,5.40
2023-04-03T11:38:05.687Z,5.80
2023-04-03T11:41:41.113Z,7.60
2023-04-03T11:42:50.874Z,7.30
2023-04-03T11:44:03.044Z,6.60
2023-04-03T11:45:26.973Z,5.70
2023-04-03T11:46:50.289Z,5.20
2023-04-03T11:47:55.358Z,4.40
2023-04-03T11:48:58.269Z,6.20
2023-04-03T11:50:05.095Z,4.55
2023-04-03T11:52:44.769Z,5.50
2023-04-03T11:53:47.314Z,5.00
2023-04-03T11:54:50.125Z,5.30
2023-04-03T11:59:12.411Z,7.20
2023-04-03T12:00:48.218Z,7.50
2023-04-03T12:01:57.074Z,5.10
2023-04-03T12:02:59.487Z,6.20
2023-04-03T12:04:09.739Z,5.50
2023-04-03T12:06:40.097Z,6.80
2023-04-03T12:07:42.869Z,5.00
2023-04-03T12:08:54.305Z,5.70
2023-04-03T12:10:00.053Z,5.80
2023-04-03T12:11:15.109Z,5.00
2023-04-03T12:12:29.829Z,4.50
2023-04-03T12:13:31.959Z,5.60
2023-04-03T12:14:34.216Z,5.90
2023-04-03T12:15:42.982Z,6.30
2023-04-03T12:16:47.520Z,6.50
2023-04-03T12:17:50.307Z,5.50
2023-04-03T12:18:57.176Z,6.64
2023-04-03T12:19:59.423Z,5.70
2023-04-03T12:21:01.590Z,6.90
2023-04-03T12:22:06.704Z,6.30
2023-04-03T12:23:32.508Z,6.10
2023-04-03T12:24:37.022Z,5.60
2023-04-03T12:27:24.574Z,7.50
2023-04-03T12:28:28.337Z,7.00
2023-04-03T12:30:46.905Z,9.30
2023-04-03T12:32:28.177Z,10.90
2023-04-03T12:33:52.366Z,6.70
2023-04-03T12:38:05.245Z,6.40
2023-04-03T12:39:19.928Z,5.20
2023-04-03T12:40:45.136Z,3.70
2023-04-03T12:43:34.412Z,5.40
2023-04-03T12:46:10.858Z,2.60
2023-04-03T12:48:31.864Z,5.00
2023-04-03T12:49:43.224Z,4.70
2023-04-03T12:50:50.399Z,3.90
2023-04-03T12:51:52.859Z,3.50
2023-04-03T12:52:58.588Z,4.70
2023-04-03T12:54:04.522Z,4.20
2023-04-03T12:55:21.387Z,4.00
2023-04-03T12:56:32.066Z,3.20
2023-04-03T12:57:34.198Z,2.60
2023-04-03T12:58:36.322Z,4.00
2023-04-03T12:59:38.798Z,3.80
2023-04-03T13:00:43.284Z,3.00
2023-04-03T13:03:05.183Z,3.10
2023-04-03T13:04:09.504Z,3.90
2023-04-03T13:05:15.257Z,4.00
2023-04-03T13:07:36.279Z,3.40
2023-04-03T13:08:42.197Z,3.40
2023-04-03T13:09:46.707Z,2.80
2023-04-03T13:10:58.495Z,3.20
2023-04-03T13:13:16.240Z,4.30
2023-04-03T13:14:25.079Z,3.30
2023-04-03T13:15:30.443Z,2.70
2023-04-03T13:16:33.940Z,3.50
2023-04-03T13:17:39.517Z,3.40
2023-04-03T13:18:42.260Z,3.80
2023-04-03T13:19:46.597Z,3.50
2023-04-03T13:20:50.919Z,3.50
2023-04-03T13:23:08.240Z,3.50
2023-04-03T13:24:15.671Z,4.60
2023-04-03T13:25:19.815Z,4.30
2023-04-03T13:26:25.042Z,3.70
2023-04-03T13:27:30.178Z,2.70
2023-04-03T13:28:34.326Z,2.20
2023-04-03T13:29:37.889Z,3.30
2023-04-03T13:30:41.513Z,2.90
2023-04-03T13:31:44.231Z,1.80
2023-04-03T13:32:47.566Z,2.70
2023-04-03T13:34:11.571Z,3.00
2023-04-03T13:36:54.401Z,3.90
2023-04-03T13:39:17.673Z,4.00
2023-04-03T13:40:20.168Z,3.40
2023-04-03T13:41:35.190Z,3.30
2023-04-03T13:42:40.373Z,3.00
2023-04-03T13:43:43.196Z,3.20
2023-04-03T13:44:46.603Z,3.09
2023-04-03T13:46:02.244Z,2.20
2023-04-03T13:47:24.191Z,2.00
2023-04-03T13:48:26.910Z,2.50
2023-04-03T13:49:35.628Z,3.10
2023-04-03T13:52:30.500Z,2.90
2023-04-03T13:53:36.607Z,1.60
2023-04-03T13:54:39.806Z,2.40
2023-04-03T13:55:57.903Z,2.90
2023-04-03T13:57:01.148Z,2.90
2023-04-03T13:58:10.259Z,3.00
2023-04-03T13:59:16.142Z,3.70
2023-04-03T14:00:28.075Z,3.10
2023-04-03T14:02:49.690Z,3.40
2023-04-03T14:04:05.066Z,3.00
2023-04-03T14:05:08.736Z,3.00
2023-04-03T14:06:14.878Z,2.70
2023-04-03T14:07:17.391Z,2.30
2023-04-03T14:08:26.433Z,3.60
2023-04-03T14:09:26.576Z,3.10
2023-04-03T14:10:28.859Z,2.70
2023-04-03T14:11:31.435Z,2.20
2023-04-03T14:13:47.384Z,3.60
2023-04-03T14:14:50.095Z,3.20
2023-04-03T14:15:52.393Z,3.30
2023-04-03T14:16:58.049Z,2.55
2023-04-03T14:18:01.614Z,3.30
2023-04-03T14:19:04.798Z,3.70
2023-04-03T14:20:17.785Z,3.00
2023-04-03T14:21:21.299Z,4.00
2023-04-03T14:22:30.018Z,2.80
2023-04-03T14:23:32.757Z,3.50
2023-04-03T14:24:34.796Z,3.60
2023-04-03T14:26:59.516Z,2.20
2023-04-03T14:28:04.305Z,3.10
2023-04-03T14:29:06.443Z,3.10
2023-04-03T14:30:19.275Z,2.50
2023-04-03T14:31:23.134Z,3.00
2023-04-03T14:32:27.708Z,2.20
2023-04-03T14:33:29.941Z,2.40
2023-04-03T14:34:33.165Z,1.30
2023-04-03T14:35:35.385Z,2.60
2023-04-03T14:36:39.607Z,2.40
2023-04-03T14:37:42.660Z,3.20
2023-04-03T14:38:45.188Z,2.00
2023-04-03T14:39:48.578Z,2.80
2023-04-03T14:40:51.787Z,2.80
2023-04-03T14:41:53.985Z,2.40
2023-04-03T14:42:56.320Z,2.00
2023-04-03T14:43:59.729Z,2.00
2023-04-03T14:45:05.442Z,2.00
2023-04-03T14:47:31.314Z,1.70
2023-04-03T14:48:31.101Z,2.00
2023-04-03T14:49:34.540Z,1.90
2023-04-03T14:50:37.428Z,2.00
2023-04-03T14:51:59.820Z,1.80
2023-04-03T14:53:01.928Z,1.60
2023-04-03T14:54:06.454Z,2.60
2023-04-03T14:55:10.891Z,1.50
2023-04-03T14:57:30.468Z,1.80
2023-04-03T14:58:32.900Z,2.50
2023-04-03T14:59:35.576Z,1.90
2023-04-03T15:00:38.174Z,1.70
2023-04-03T15:01:40.781Z,1.82
2023-04-03T15:02:43.767Z,1.50
2023-04-03T15:03:46.460Z,1.50
2023-04-03T15:04:50.166Z,1.20
2023-04-03T15:05:53.339Z,1.40
2023-04-03T15:06:55.508Z,1.00
2023-04-03T15:07:58.625Z,1.70
2023-04-03T15:09:03.035Z,1.70
2023-04-03T15:10:18.420Z,2.00
2023-04-03T15:11:21.207Z,1.20
2023-04-03T15:12:26.038Z,2.10
2023-04-03T15:13:28.710Z,1.80
2023-04-03T15:14:36.805Z,2.30
2023-04-03T15:15:37.323Z,1.90
2023-04-03T15:16:40.311Z,2.70
2023-04-03T15:17:43.182Z,1.82
2023-04-03T15:18:46.424Z,1.20
2023-04-03T15:19:49.830Z,1.20
2023-04-03T15:22:04.306Z,2.10
2023-04-03T15:23:06.633Z,1.30
2023-04-03T15:24:10.941Z,1.00
2023-04-03T15:25:13.151Z,0.70
2023-04-03T15:26:15.538Z,1.10
2023-04-03T15:27:17.693Z,1.00
2023-04-03T15:28:30.133Z,1.20
2023-04-03T15:29:32.321Z,0.00
2023-04-03T15:30:38.537Z,0.80
2023-04-03T15:31:40.989Z,0.00
2023-04-03T15:32:43.664Z,0.00
2023-04-03T15:33:45.805Z,0.60
2023-04-03T15:34:47.945Z,0.50
2023-04-03T15:35:50.246Z,0.50
2023-04-03T15:36:54.050Z,0.60
2023-04-03T15:37:56.498Z,0.80
2023-04-03T15:38:59.051Z,0.80
2023-04-03T15:40:01.355Z,1.00
2023-04-03T15:41:04.064Z,1.30
2023-04-03T15:42:06.756Z,1.00
2023-04-03T15:43:09.869Z,1.00